createdAt,value
2023-04-01T00:00:52.235Z,9.40
2023-04-01T00:01:52.213Z,9.42
2023-04-01T00:02:52.295Z,9.44
2023-04-01T00:03:52.250Z,9.42
2023-04-01T00:04:52.199Z,9.42
2023-04-01T00:05:52.149Z,9.44
2023-04-01T00:06:52.185Z,9.44
2023-04-01T00:07:52.173Z,9.42
2023-04-01T00:08:52.174Z,9.41
2023-04-01T00:09:52.124Z,9.40
2023-04-01T00:10:52.101Z,9.40
2023-04-01T00:11:52.096Z,9.41
2023-04-01T00:12:52.078Z,9.40
2023-04-01T00:13:52.089Z,9.37
2023-04-01T00:14:52.067Z,9.37
2023-04-01T00:15:52.098Z,9.38
2023-04-01T00:16:52.080Z,9.38
2023-04-01T00:17:52.057Z,9.40
2023-04-01T00:18:51.995Z,9.40
2023-04-01T00:19:52.010Z,9.41
2023-04-01T00:20:51.958Z,9.42
2023-04-01T00:21:51.932Z,9.42
2023-04-01T00:22:51.975Z,9.44
2023-04-01T00:23:52.261Z,9.44
2023-04-01T00:24:51.945Z,9.44
2023-04-01T00:25:51.884Z,9.45
2023-04-01T00:26:51.877Z,9.44
2023-04-01T00:27:51.941Z,9.42
2023-04-01T00:28:51.935Z,9.42
2023-04-01T00:29:51.862Z,9.42
2023-04-01T00:30:51.860Z,9.44
2023-04-01T00:31:51.846Z,9.44
2023-04-01T00:32:51.862Z,9.44
2023-04-01T00:33:51.853Z,9.44
2023-04-01T00:34:51.803Z,9.44
2023-04-01T00:35:51.806Z,9.45
2023-04-01T00:36:51.802Z,9.45
2023-04-01T00:37:51.809Z,9.45
2023-04-01T00:38:51.782Z,9.45
2023-04-01T00:39:51.715Z,9.45
2023-04-01T00:40:51.685Z,9.45
2023-04-01T00:41:51.751Z,9.45
2023-04-01T00:42:51.868Z,9.49
2023-04-01T00:43:51.669Z,9.45
2023-04-01T00:44:51.643Z,9.44
2023-04-01T00:45:51.684Z,9.41
2023-04-01T00:46:51.663Z,9.44
2023-04-01T00:47:51.679Z,9.42
2023-04-01T00:48:51.678Z,9.41
2023-04-01T00:49:51.605Z,9.42
2023-04-01T00:50:51.582Z,9.42
2023-04-01T00:51:51.596Z,9.42
2023-04-01T00:52:51.622Z,9.42
2023-04-01T00:53:51.524Z,9.44
2023-04-01T00:54:51.498Z,9.42
2023-04-01T00:55:52.454Z,9.42
2023-04-01T00:56:51.605Z,9.42
2023-04-01T00:57:51.502Z,9.42
2023-04-01T00:58:51.550Z,9.42
2023-04-01T00:59:51.484Z,9.42
2023-04-01T01:00:51.480Z,9.44
2023-04-01T01:01:51.539Z,9.42
2023-04-01T01:02:51.440Z,9.44
2023-04-01T01:03:51.414Z,9.42
2023-04-01T01:04:51.371Z,9.42
2023-04-01T01:05:51.600Z,9.44
2023-04-01T01:06:51.355Z,9.44
2023-04-01T01:07:51.345Z,9.44
2023-04-01T01:08:51.511Z,9.45
2023-04-01T01:09:51.335Z,9.45
2023-04-01T01:10:51.324Z,9.45
2023-04-01T01:11:51.376Z,9.44
2023-04-01T01:12:51.322Z,9.45
2023-04-01T01:13:51.306Z,9.45
2023-04-01T01:14:51.247Z,9.42
2023-04-01T01:15:51.294Z,9.45
2023-04-01T01:16:51.237Z,9.44
2023-04-01T01:17:51.314Z,9.45
2023-04-01T01:18:51.241Z,9.44
2023-04-01T01:19:51.252Z,9.49
2023-04-01T01:20:51.190Z,9.42
2023-04-01T01:21:51.195Z,9.42
2023-04-01T01:22:51.116Z,9.44
2023-04-01T01:23:51.210Z,9.44
2023-04-01T01:24:51.144Z,9.45
2023-04-01T01:25:51.188Z,9.45
2023-04-01T01:26:51.122Z,9.48
2023-04-01T01:27:51.098Z,9.48
2023-04-01T01:28:51.062Z,9.45
2023-04-01T01:29:51.105Z,9.48
2023-04-01T01:30:51.107Z,9.49
2023-04-01T01:31:51.046Z,9.48
2023-04-01T01:32:51.117Z,9.50
2023-04-01T01:33:50.998Z,9.52
2023-04-01T01:34:51.056Z,9.52
2023-04-01T01:35:51.049Z,9.52
2023-04-01T01:36:50.937Z,9.50
2023-04-01T01:37:50.946Z,9.52
2023-04-01T01:38:51.040Z,9.52
2023-04-01T01:39:50.939Z,9.50
2023-04-01T01:40:50.927Z,9.52
2023-04-01T01:41:50.942Z,9.52
2023-04-01T01:42:50.879Z,9.52
2023-04-01T01:43:50.861Z,9.52
2023-04-01T01:44:50.904Z,9.52
2023-04-01T01:45:50.878Z,9.53
2023-04-01T01:46:50.834Z,9.53
2023-04-01T01:47:50.889Z,9.55
2023-04-01T01:48:50.801Z,9.52
2023-04-01T01:49:50.912Z,9.55
2023-04-01T01:50:50.774Z,9.55
2023-04-01T01:51:50.772Z,9.55
2023-04-01T01:52:50.789Z,9.55
2023-04-01T01:53:50.791Z,9.52
2023-04-01T01:54:50.717Z,9.56
2023-04-01T01:55:50.810Z,9.56
2023-04-01T01:56:50.768Z,9.56
2023-04-01T01:57:50.719Z,9.55
2023-04-01T01:58:50.662Z,9.53
2023-04-01T01:59:50.685Z,9.52
2023-04-01T02:00:50.625Z,9.53
2023-04-01T02:01:50.770Z,9.52
2023-04-01T02:02:50.655Z,9.50
2023-04-01T02:03:50.829Z,9.49
2023-04-01T02:04:50.614Z,9.48
2023-04-01T02:05:51.260Z,9.49
2023-04-01T02:06:50.555Z,9.49
2023-04-01T02:07:50.554Z,9.49
2023-04-01T02:08:50.541Z,9.50
2023-04-01T02:09:50.535Z,9.49
2023-04-01T02:10:50.525Z,9.49
2023-04-01T02:11:50.508Z,9.48
2023-04-01T02:12:50.472Z,9.50
2023-04-01T02:13:50.474Z,9.50
2023-04-01T02:14:50.469Z,9.50
2023-04-01T02:15:50.503Z,9.50
2023-04-01T02:16:50.415Z,9.50
2023-04-01T02:17:50.624Z,9.52
2023-04-01T02:18:50.434Z,9.52
2023-04-01T02:19:50.482Z,9.53
2023-04-01T02:20:50.375Z,9.53
2023-04-01T02:21:50.449Z,9.52
2023-04-01T02:22:50.361Z,9.50
2023-04-01T02:23:50.359Z,9.49
2023-04-01T02:24:50.337Z,9.48
2023-04-01T02:25:50.295Z,9.45
2023-04-01T02:26:50.324Z,9.42
2023-04-01T02:27:50.339Z,9.42
2023-04-01T02:28:50.250Z,9.44
2023-04-01T02:29:50.272Z,9.44
2023-04-01T02:30:50.300Z,9.44
2023-04-01T02:31:50.293Z,9.44
2023-04-01T02:32:50.318Z,9.42
2023-04-01T02:33:50.247Z,9.41
2023-04-01T02:34:50.171Z,9.41
2023-04-01T02:35:50.235Z,9.40
2023-04-01T02:36:50.190Z,9.40
2023-04-01T02:37:50.135Z,9.37
2023-04-01T02:38:50.146Z,9.35
2023-04-01T02:39:50.106Z,9.35
2023-04-01T02:40:50.099Z,9.38
2023-04-01T02:41:50.757Z,9.37
2023-04-01T02:42:50.076Z,9.38
2023-04-01T02:43:50.079Z,9.38
2023-04-01T02:44:50.039Z,9.38
2023-04-01T02:45:50.090Z,9.37
2023-04-01T02:46:50.058Z,9.37
2023-04-01T02:47:50.533Z,9.38
2023-04-01T02:48:50.037Z,9.38
2023-04-01T02:49:50.042Z,9.38
2023-04-01T02:50:49.995Z,9.37
2023-04-01T02:51:50.051Z,9.38
2023-04-01T02:52:49.981Z,9.41
2023-04-01T02:53:50.000Z,9.41
2023-04-01T02:54:49.943Z,9.40
2023-04-01T02:55:49.913Z,9.40
2023-04-01T02:56:49.955Z,9.38
2023-04-01T02:57:49.879Z,9.40
2023-04-01T02:58:49.870Z,9.38
2023-04-01T02:59:49.865Z,9.38
2023-04-01T03:00:49.895Z,9.40
2023-04-01T03:01:49.826Z,9.41
2023-04-01T03:02:49.900Z,9.42
2023-04-01T03:03:49.945Z,9.44
2023-04-01T03:04:49.791Z,9.44
2023-04-01T03:05:49.778Z,9.44
2023-04-01T03:06:50.551Z,9.42
2023-04-01T03:07:49.736Z,9.40
2023-04-01T03:08:49.741Z,9.41
2023-04-01T03:09:49.703Z,9.44
2023-04-01T03:10:49.704Z,9.42
2023-04-01T03:11:49.695Z,9.42
2023-04-01T03:12:49.707Z,9.42
2023-04-01T03:13:49.667Z,9.44
2023-04-01T03:14:49.654Z,9.42
2023-04-01T03:15:49.646Z,9.45
2023-04-01T03:16:49.709Z,9.44
2023-04-01T03:17:49.673Z,9.45
2023-04-01T03:18:49.604Z,9.45
2023-04-01T03:19:49.598Z,9.44
2023-04-01T03:20:49.567Z,9.45
2023-04-01T03:21:49.600Z,9.45
2023-04-01T03:22:50.024Z,9.48
2023-04-01T03:23:49.556Z,9.48
2023-04-01T03:24:49.530Z,9.50
2023-04-01T03:25:49.549Z,9.48
2023-04-01T03:26:49.507Z,9.48
2023-04-01T03:27:49.483Z,9.45
2023-04-01T03:28:49.457Z,9.48
2023-04-01T03:29:49.522Z,9.48
2023-04-01T03:30:49.486Z,9.49
2023-04-01T03:31:49.426Z,9.48
2023-04-01T03:32:49.421Z,9.49
2023-04-01T03:33:49.492Z,9.49
2023-04-01T03:34:49.376Z,9.49
2023-04-01T03:35:49.368Z,9.49
2023-04-01T03:36:49.341Z,9.49
2023-04-01T03:37:49.388Z,9.50
2023-04-01T03:38:49.386Z,9.52
2023-04-01T03:39:49.326Z,9.50
2023-04-01T03:40:49.292Z,9.49
2023-04-01T03:41:49.312Z,9.48
2023-04-01T03:42:49.284Z,9.48
2023-04-01T03:43:49.318Z,9.48
2023-04-01T03:44:49.216Z,9.49
2023-04-01T03:45:50.234Z,9.49
2023-04-01T03:46:49.239Z,9.49
2023-04-01T03:47:49.301Z,9.49
2023-04-01T03:48:49.239Z,9.50
2023-04-01T03:49:49.202Z,9.52
2023-04-01T03:50:49.169Z,9.50
2023-04-01T03:51:49.150Z,9.50
2023-04-01T03:52:49.167Z,9.49
2023-04-01T03:53:49.145Z,9.49
2023-04-01T03:54:49.271Z,9.50
2023-04-01T03:55:49.140Z,9.50
2023-04-01T03:56:49.181Z,9.49
2023-04-01T03:57:49.102Z,9.49
2023-04-01T03:58:49.136Z,9.49
2023-04-01T03:59:49.035Z,9.49
2023-04-01T04:00:49.003Z,9.50
2023-04-01T04:01:49.021Z,9.49
2023-04-01T04:02:49.070Z,9.49
2023-04-01T04:03:49.091Z,9.49
2023-04-01T04:04:49.002Z,9.49
2023-04-01T04:05:49.020Z,9.50
2023-04-01T04:06:49.021Z,9.49
2023-04-01T04:07:48.926Z,9.48
2023-04-01T04:08:48.981Z,9.49
2023-04-01T04:09:48.974Z,9.50
2023-04-01T04:10:48.892Z,9.52
2023-04-01T04:11:48.886Z,9.49
2023-04-01T04:12:48.903Z,9.49
2023-04-01T04:13:48.908Z,9.50
2023-04-01T04:14:48.892Z,9.52
2023-04-01T04:15:49.054Z,9.53
2023-04-01T04:16:48.920Z,9.52
2023-04-01T04:17:48.864Z,9.53
2023-04-01T04:18:48.867Z,9.55
2023-04-01T04:19:48.883Z,9.53
2023-04-01T04:20:49.780Z,9.55
2023-04-01T04:21:48.954Z,9.53
2023-04-01T04:22:48.832Z,9.50
2023-04-01T04:23:48.718Z,9.50
2023-04-01T04:24:48.858Z,9.52
2023-04-01T04:25:48.726Z,9.52
2023-04-01T04:26:48.649Z,9.52
2023-04-01T04:27:48.684Z,9.53
2023-04-01T04:28:48.644Z,9.49
2023-04-01T04:29:48.650Z,9.49
2023-04-01T04:30:48.634Z,9.49
2023-04-01T04:31:48.720Z,9.50
2023-04-01T04:32:48.622Z,9.49
2023-04-01T04:33:48.698Z,9.49
2023-04-01T04:34:48.581Z,9.52
2023-04-01T04:35:48.581Z,9.50
2023-04-01T04:36:48.530Z,9.50
2023-04-01T04:37:48.576Z,9.50
2023-04-01T04:38:48.514Z,9.49
2023-04-01T04:39:48.503Z,9.50
2023-04-01T04:40:48.471Z,9.50
2023-04-01T04:41:48.513Z,9.49
2023-04-01T04:42:48.457Z,9.50
2023-04-01T04:43:48.487Z,9.49
2023-04-01T04:44:48.469Z,9.49
2023-04-01T04:45:48.447Z,9.50
2023-04-01T04:46:48.456Z,9.49
2023-04-01T04:47:48.409Z,9.50
2023-04-01T04:48:48.388Z,9.50
2023-04-01T04:49:48.383Z,9.50
2023-04-01T04:50:48.365Z,9.50
2023-04-01T04:51:48.343Z,9.52
2023-04-01T04:52:48.332Z,9.53
2023-04-01T04:53:49.586Z,9.52
2023-04-01T04:54:48.283Z,9.52
2023-04-01T04:55:48.287Z,9.52
2023-04-01T04:56:48.298Z,9.53
2023-04-01T04:57:48.403Z,9.52
2023-04-01T04:58:48.247Z,9.53
2023-04-01T04:59:48.225Z,9.52
2023-04-01T05:00:48.241Z,9.52
2023-04-01T05:01:48.283Z,9.53
2023-04-01T05:02:48.329Z,9.52
2023-04-01T05:03:48.204Z,9.50
2023-04-01T05:04:48.200Z,9.52
2023-04-01T05:05:48.183Z,9.52
2023-04-01T05:06:48.176Z,9.53
2023-04-01T05:07:48.162Z,9.53
2023-04-01T05:08:48.329Z,9.52
2023-04-01T05:09:48.141Z,9.55
2023-04-01T05:10:48.124Z,9.53
2023-04-01T05:11:48.132Z,9.53
2023-04-01T05:12:48.067Z,9.53
2023-04-01T05:13:48.067Z,9.58
2023-04-01T05:14:48.050Z,9.58
2023-04-01T05:15:48.044Z,9.58
2023-04-01T05:16:48.033Z,9.58
2023-04-01T05:17:48.140Z,9.58
2023-04-01T05:18:47.989Z,9.59
2023-04-01T05:19:48.031Z,9.60
2023-04-01T05:20:47.969Z,9.59
2023-04-01T05:21:47.979Z,9.59
2023-04-01T05:22:47.926Z,9.60
2023-04-01T05:23:47.891Z,9.60
2023-04-01T05:24:47.944Z,9.60
2023-04-01T05:25:47.917Z,9.60
2023-04-01T05:26:47.934Z,9.59
2023-04-01T05:27:47.899Z,9.59
2023-04-01T05:28:47.890Z,9.59
2023-04-01T05:29:47.850Z,9.59
2023-04-01T05:30:47.890Z,9.60
2023-04-01T05:31:47.845Z,9.62
2023-04-01T05:32:47.817Z,9.63
2023-04-01T05:33:47.874Z,9.63
2023-04-01T05:34:47.796Z,9.63
2023-04-01T05:35:47.858Z,9.65
2023-04-01T05:36:47.829Z,9.63
2023-04-01T05:37:47.886Z,9.63
2023-04-01T05:38:47.724Z,9.65
2023-04-01T05:39:47.742Z,9.63
2023-04-01T05:40:47.731Z,9.67
2023-04-01T05:41:47.685Z,9.67
2023-04-01T05:42:47.672Z,9.68
2023-04-01T05:43:47.647Z,9.70
2023-04-01T05:44:47.644Z,9.77
2023-04-01T05:45:47.670Z,9.81
2023-04-01T05:46:47.594Z,9.81
2023-04-01T05:47:47.662Z,9.83
2023-04-01T05:48:47.667Z,9.88
2023-04-01T05:49:47.563Z,9.91
2023-04-01T05:50:47.574Z,10.07
2023-04-01T05:51:47.530Z,10.18
2023-04-01T05:52:47.526Z,10.24
2023-04-01T05:53:47.487Z,10.29
2023-04-01T05:54:47.551Z,10.26
2023-04-01T05:55:47.475Z,10.28
2023-04-01T05:56:48.680Z,10.31
2023-04-01T05:57:47.446Z,10.29
2023-04-01T05:58:47.493Z,10.26
2023-04-01T05:59:47.455Z,10.35
2023-04-01T06:00:47.927Z,10.43
2023-04-01T06:01:47.421Z,10.52
2023-04-01T06:02:47.518Z,10.55
2023-04-01T06:03:47.448Z,10.60
2023-04-01T06:04:47.454Z,10.58
2023-04-01T06:05:47.639Z,10.57
2023-04-01T06:06:47.387Z,10.46
2023-04-01T06:07:47.320Z,10.46
2023-04-01T06:08:47.333Z,10.46
2023-04-01T06:09:47.374Z,10.46
2023-04-01T06:10:47.304Z,10.43
2023-04-01T06:11:47.274Z,10.34
2023-04-01T06:12:47.311Z,10.26
2023-04-01T06:13:47.239Z,10.20
2023-04-01T06:14:47.258Z,10.13
2023-04-01T06:15:47.222Z,10.09
2023-04-01T06:16:47.222Z,10.07
2023-04-01T06:17:47.212Z,10.06
2023-04-01T06:18:47.222Z,10.02
2023-04-01T06:19:47.217Z,9.99
2023-04-01T06:20:47.192Z,9.99
2023-04-01T06:21:47.172Z,9.96
2023-04-01T06:22:47.166Z,9.95
2023-04-01T06:23:47.108Z,9.93
2023-04-01T06:24:47.112Z,9.91
2023-04-01T06:25:47.133Z,9.92
2023-04-01T06:26:47.121Z,9.92
2023-04-01T06:27:47.081Z,9.91
2023-04-01T06:28:47.076Z,9.92
2023-04-01T06:29:47.038Z,9.93
2023-04-01T06:30:47.039Z,9.95
2023-04-01T06:31:47.022Z,9.95
2023-04-01T06:32:47.108Z,9.96
2023-04-01T06:33:46.986Z,9.93
2023-04-01T06:34:46.997Z,9.95
2023-04-01T06:35:47.036Z,9.95
2023-04-01T06:36:46.946Z,9.95
2023-04-01T06:37:46.951Z,9.95
2023-04-01T06:38:46.949Z,9.98
2023-04-01T06:39:46.911Z,9.98
2023-04-01T06:40:46.882Z,9.99
2023-04-01T06:41:46.873Z,10.02
2023-04-01T06:42:46.854Z,10.04
2023-04-01T06:43:46.851Z,10.04
2023-04-01T06:44:46.823Z,10.07
2023-04-01T06:45:46.912Z,10.09
2023-04-01T06:46:46.810Z,10.07
2023-04-01T06:47:46.851Z,10.07
2023-04-01T06:48:47.048Z,10.09
2023-04-01T06:49:46.809Z,10.10
2023-04-01T06:50:46.793Z,10.11
2023-04-01T06:51:46.746Z,10.10
2023-04-01T06:52:46.797Z,10.11
2023-04-01T06:53:46.744Z,10.16
2023-04-01T06:54:46.737Z,10.14
2023-04-01T06:55:46.838Z,10.16
2023-04-01T06:56:46.717Z,10.16
2023-04-01T06:57:46.670Z,10.16
2023-04-01T06:58:46.709Z,10.18
2023-04-01T06:59:46.630Z,10.20
2023-04-01T07:00:46.674Z,10.24
2023-04-01T07:01:46.668Z,10.25
2023-04-01T07:02:46.618Z,10.28
2023-04-01T07:03:46.580Z,10.34
2023-04-01T07:04:46.671Z,10.36
2023-04-01T07:05:46.577Z,10.36
2023-04-01T07:06:46.591Z,10.39
2023-04-01T07:07:46.518Z,10.42
2023-04-01T07:08:46.521Z,10.47
2023-04-01T07:09:46.505Z,10.52
2023-04-01T07:10:46.484Z,10.57
2023-04-01T07:11:46.528Z,10.62
2023-04-01T07:12:46.506Z,10.66
2023-04-01T07:13:46.458Z,10.66
2023-04-01T07:14:46.465Z,10.68
2023-04-01T07:15:46.424Z,10.70
2023-04-01T07:16:46.464Z,10.70
2023-04-01T07:17:46.499Z,10.70
2023-04-01T07:18:46.365Z,10.72
2023-04-01T07:19:46.352Z,10.75
2023-04-01T07:20:46.356Z,10.75
2023-04-01T07:21:46.423Z,10.76
2023-04-01T07:22:46.387Z,10.81
2023-04-01T07:23:46.290Z,10.84
2023-04-01T07:24:46.339Z,10.87
2023-04-01T07:25:46.257Z,10.87
2023-04-01T07:26:46.944Z,10.88
2023-04-01T07:27:46.274Z,10.86
2023-04-01T07:28:46.260Z,10.87
2023-04-01T07:29:46.247Z,10.86
2023-04-01T07:30:46.302Z,10.86
2023-04-01T07:31:46.217Z,10.91
2023-04-01T07:32:46.251Z,10.94
2023-04-01T07:33:46.180Z,10.95
2023-04-01T07:34:46.226Z,10.99
2023-04-01T07:35:46.191Z,11.03
2023-04-01T07:36:46.179Z,11.08
2023-04-01T07:37:46.116Z,11.13
2023-04-01T07:38:46.251Z,11.17
2023-04-01T07:39:46.129Z,11.13
2023-04-01T07:40:46.118Z,11.17
2023-04-01T07:41:46.104Z,11.13
2023-04-01T07:42:46.092Z,11.13
2023-04-01T07:43:46.057Z,11.17
2023-04-01T07:44:46.060Z,11.20
2023-04-01T07:45:46.033Z,11.27
2023-04-01T07:46:46.111Z,11.27
2023-04-01T07:47:46.082Z,11.31
2023-04-01T07:48:45.988Z,11.31
2023-04-01T07:49:45.962Z,11.31
2023-04-01T07:50:47.134Z,11.33
2023-04-01T07:51:45.950Z,11.36
2023-04-01T07:52:45.961Z,11.38
2023-04-01T07:53:45.964Z,11.46
2023-04-01T07:54:45.915Z,11.44
2023-04-01T07:55:45.908Z,11.48
2023-04-01T07:56:45.962Z,11.49
2023-04-01T07:57:45.854Z,11.54
2023-04-01T07:58:45.860Z,11.56
2023-04-01T07:59:45.868Z,11.60
2023-04-01T08:00:45.914Z,11.62
2023-04-01T08:01:45.856Z,11.66
2023-04-01T08:02:45.902Z,11.69
2023-04-01T08:03:45.934Z,11.66
2023-04-01T08:04:45.959Z,11.64
2023-04-01T08:05:45.858Z,11.60
2023-04-01T08:06:45.783Z,11.64
2023-04-01T08:07:45.757Z,11.67
2023-04-01T08:08:45.745Z,11.79
2023-04-01T08:09:45.721Z,11.96
2023-04-01T08:10:45.706Z,12.01
2023-04-01T08:11:45.701Z,12.03
2023-04-01T08:12:45.695Z,11.98
2023-04-01T08:13:45.681Z,12.03
2023-04-01T08:14:45.652Z,12.07
2023-04-01T08:15:45.636Z,12.08
2023-04-01T08:16:45.698Z,12.13
2023-04-01T08:17:45.672Z,12.16
2023-04-01T08:18:45.656Z,12.21
2023-04-01T08:19:45.581Z,12.18
2023-04-01T08:20:45.597Z,12.13
2023-04-01T08:21:45.583Z,12.12
2023-04-01T08:22:45.564Z,12.13
2023-04-01T08:23:45.562Z,12.07
2023-04-01T08:24:47.958Z,11.98
2023-04-01T08:25:45.517Z,11.98
2023-04-01T08:26:45.509Z,11.94
2023-04-01T08:27:45.489Z,11.94
2023-04-01T08:28:45.478Z,11.90
2023-04-01T08:29:45.430Z,11.81
2023-04-01T08:30:45.443Z,11.75
2023-04-01T08:31:45.553Z,11.69
2023-04-01T08:32:45.491Z,11.62
2023-04-01T08:33:45.436Z,11.60
2023-04-01T08:34:45.397Z,11.56
2023-04-01T08:35:45.424Z,11.41
2023-04-01T08:36:45.366Z,11.21
2023-04-01T08:37:45.388Z,11.08
2023-04-01T08:38:45.318Z,11.02
2023-04-01T08:39:45.339Z,10.99
2023-04-01T08:40:45.304Z,10.99
2023-04-01T08:41:45.330Z,11.01
2023-04-01T08:42:45.311Z,10.95
2023-04-01T08:43:45.295Z,10.90
2023-04-01T08:44:45.249Z,10.90
2023-04-01T08:45:45.297Z,10.88
2023-04-01T08:46:45.274Z,10.83
2023-04-01T08:47:45.264Z,10.73
2023-04-01T08:48:45.222Z,10.72
2023-04-01T08:49:45.178Z,10.70
2023-04-01T08:50:45.667Z,10.69
2023-04-01T08:51:45.180Z,10.69
2023-04-01T08:52:46.714Z,10.70
2023-04-01T08:53:45.648Z,10.66
2023-04-01T08:54:45.818Z,10.63
2023-04-01T08:55:45.125Z,10.63
2023-04-01T08:56:45.205Z,10.65
2023-04-01T08:57:45.087Z,10.60
2023-04-01T08:58:45.075Z,10.62
2023-04-01T08:59:45.120Z,10.49
2023-04-01T09:00:45.096Z,10.42
2023-04-01T09:01:45.114Z,10.38
2023-04-01T09:02:45.166Z,10.36
2023-04-01T09:03:45.131Z,10.32
2023-04-01T09:04:45.029Z,10.28
2023-04-01T09:05:44.992Z,10.22
2023-04-01T09:06:44.992Z,10.20
2023-04-01T09:07:45.024Z,10.22
2023-04-01T09:08:44.965Z,10.17
2023-04-01T09:09:44.934Z,10.10
2023-04-01T09:10:45.028Z,10.09
2023-04-01T09:11:44.926Z,10.06
2023-04-01T09:12:44.978Z,10.04
2023-04-01T09:13:44.958Z,10.01
2023-04-01T09:14:44.917Z,10.06
2023-04-01T09:15:44.847Z,10.01
2023-04-01T09:16:44.893Z,10.01
2023-04-01T09:17:44.906Z,10.07
2023-04-01T09:18:44.810Z,10.09
2023-04-01T09:19:44.790Z,10.10
2023-04-01T09:20:44.824Z,10.14
2023-04-01T09:21:44.792Z,10.10
2023-04-01T09:22:44.831Z,10.09
2023-04-01T09:23:44.779Z,10.02
2023-04-01T09:24:44.800Z,9.98
2023-04-01T09:25:44.769Z,9.92
2023-04-01T09:26:44.789Z,9.93
2023-04-01T09:27:44.754Z,9.95
2023-04-01T09:28:44.731Z,9.95
2023-04-01T09:29:44.692Z,9.99
2023-04-01T09:30:44.700Z,9.96
2023-04-01T09:31:44.695Z,9.96
2023-04-01T09:32:44.664Z,9.92
2023-04-01T09:33:44.677Z,9.88
2023-04-01T09:34:44.659Z,9.81
2023-04-01T09:35:44.668Z,9.73
2023-04-01T09:36:44.593Z,9.70
2023-04-01T09:37:44.609Z,9.65
2023-04-01T09:38:44.617Z,9.63
2023-04-01T09:39:44.598Z,9.62
2023-04-01T09:40:45.226Z,9.68
2023-04-01T09:41:44.573Z,9.70
2023-04-01T09:42:44.624Z,9.65
2023-04-01T09:43:44.535Z,9.67
2023-04-01T09:44:44.485Z,9.63
2023-04-01T09:45:44.613Z,9.60
2023-04-01T09:46:44.561Z,9.59
2023-04-01T09:47:44.589Z,9.59
2023-04-01T09:48:44.518Z,9.62
2023-04-01T09:49:44.455Z,9.60
2023-04-01T09:50:44.453Z,9.59
2023-04-01T09:51:44.381Z,9.59
2023-04-01T09:52:45.423Z,9.59
2023-04-01T09:53:44.452Z,9.59
2023-04-01T09:54:44.381Z,9.59
2023-04-01T09:55:44.390Z,9.58
2023-04-01T09:56:44.379Z,9.62
2023-04-01T09:57:44.414Z,9.60
2023-04-01T09:58:44.504Z,9.65
2023-04-01T09:59:44.425Z,9.70
2023-04-01T10:00:44.292Z,9.73
2023-04-01T10:01:44.474Z,9.75
2023-04-01T10:02:44.393Z,9.73
2023-04-01T10:03:44.319Z,9.74
2023-04-01T10:04:44.262Z,9.75
2023-04-01T10:05:44.404Z,9.80
2023-04-01T10:06:44.237Z,9.81
2023-04-01T10:07:44.231Z,9.81
2023-04-01T10:08:44.221Z,9.80
2023-04-01T10:09:44.295Z,9.75
2023-04-01T10:10:44.216Z,9.74
2023-04-01T10:11:44.259Z,9.74
2023-04-01T10:12:44.121Z,9.70
2023-04-01T10:13:45.093Z,9.67
2023-04-01T10:14:44.245Z,9.65
2023-04-01T10:15:44.150Z,9.67
2023-04-01T10:16:44.197Z,9.65
2023-04-01T10:17:44.167Z,9.59
2023-04-01T10:18:44.016Z,9.56
2023-04-01T10:19:44.256Z,9.56
2023-04-01T10:20:44.058Z,9.59
2023-04-01T10:21:44.065Z,9.60
2023-04-01T10:22:43.961Z,9.58
2023-04-01T10:23:43.988Z,9.65
2023-04-01T10:24:44.008Z,9.67
2023-04-01T10:25:51.017Z,9.67
2023-04-01T10:26:50.993Z,9.68
2023-04-01T10:27:43.905Z,9.63
2023-04-01T10:28:43.881Z,9.65
2023-04-01T10:29:43.886Z,9.63
2023-04-01T10:30:43.882Z,9.70
2023-04-01T10:31:43.864Z,9.70
2023-04-01T10:32:44.786Z,9.71
2023-04-01T10:33:43.823Z,9.73
2023-04-01T10:34:43.800Z,9.70
2023-04-01T10:35:43.891Z,9.71
2023-04-01T10:36:43.780Z,9.68
2023-04-01T10:37:43.776Z,9.71
2023-04-01T10:38:43.807Z,9.71
2023-04-01T10:39:43.745Z,9.65
2023-04-01T10:40:43.787Z,9.62
2023-04-01T10:41:43.716Z,9.53
2023-04-01T10:42:43.716Z,9.52
2023-04-01T10:43:43.698Z,9.53
2023-04-01T10:44:43.664Z,9.52
2023-04-01T10:45:43.719Z,9.49
2023-04-01T10:46:43.643Z,9.53
2023-04-01T10:47:43.680Z,9.53
2023-04-01T10:48:43.654Z,9.49
2023-04-01T10:49:43.623Z,9.44
2023-04-01T10:50:43.725Z,9.41
2023-04-01T10:51:43.605Z,9.41
2023-04-01T10:52:43.568Z,9.42
2023-04-01T10:53:43.663Z,9.41
2023-04-01T10:54:43.589Z,9.32
2023-04-01T10:55:43.611Z,9.35
2023-04-01T10:56:43.501Z,9.35
2023-04-01T10:57:43.541Z,9.44
2023-04-01T10:58:43.482Z,9.44
2023-04-01T10:59:43.541Z,9.44
2023-04-01T11:00:43.463Z,9.50
2023-04-01T11:01:43.527Z,9.52
2023-04-01T11:02:43.540Z,9.49
2023-04-01T11:03:43.497Z,9.53
2023-04-01T11:04:43.451Z,9.58
2023-04-01T11:05:43.480Z,9.59
2023-04-01T11:06:43.388Z,9.60
2023-04-01T11:07:46.545Z,9.55
2023-04-01T11:08:44.374Z,9.55
2023-04-01T11:09:43.344Z,9.55
2023-04-01T11:10:43.424Z,9.56
2023-04-01T11:11:43.347Z,9.58
2023-04-01T11:12:43.339Z,9.60
2023-04-01T11:13:43.319Z,9.58
2023-04-01T11:14:43.280Z,9.62
2023-04-01T11:15:43.308Z,9.67
2023-04-01T11:16:43.315Z,9.63
2023-04-01T11:17:43.291Z,9.65
2023-04-01T11:18:43.335Z,9.59
2023-04-01T11:19:43.272Z,9.67
2023-04-01T11:20:43.232Z,9.68
2023-04-01T11:21:43.204Z,9.68
2023-04-01T11:22:43.182Z,9.65
2023-04-01T11:23:45.533Z,9.63
2023-04-01T11:24:44.172Z,9.67
2023-04-01T11:25:43.152Z,9.67
2023-04-01T11:26:43.169Z,9.70
2023-04-01T11:27:43.399Z,9.71
2023-04-01T11:28:43.107Z,9.71
2023-04-01T11:29:56.699Z,9.67
2023-04-01T11:30:44.082Z,9.62
2023-04-01T11:31:43.311Z,9.62
2023-04-01T11:32:43.691Z,9.63
2023-04-01T11:33:43.060Z,9.65
2023-04-01T11:34:43.075Z,9.70
2023-04-01T11:35:43.024Z,9.65
2023-04-01T11:36:43.007Z,9.67
2023-04-01T11:37:42.992Z,9.71
2023-04-01T11:38:42.967Z,9.63
2023-04-01T11:39:42.964Z,9.62
2023-04-01T11:40:42.956Z,9.55
2023-04-01T11:41:42.934Z,9.53
2023-04-01T11:42:44.101Z,9.59
2023-04-01T11:43:42.924Z,9.52
2023-04-01T11:44:42.885Z,9.42
2023-04-01T11:45:43.334Z,9.40
2023-04-01T11:46:43.114Z,9.48
2023-04-01T11:47:42.875Z,9.49
2023-04-01T11:48:44.946Z,9.52
2023-04-01T11:49:42.858Z,9.52
2023-04-01T11:50:43.214Z,9.53
2023-04-01T11:51:42.825Z,9.48
2023-04-01T11:52:42.794Z,9.44
2023-04-01T11:53:42.809Z,9.34
2023-04-01T11:54:42.811Z,9.26
2023-04-01T11:55:42.794Z,9.19
2023-04-01T11:56:42.737Z,9.16
2023-04-01T11:57:42.749Z,9.19
2023-04-01T11:58:42.708Z,9.20
2023-04-01T11:59:42.704Z,9.22
2023-04-01T12:00:42.731Z,9.23
2023-04-01T12:01:42.676Z,9.31
2023-04-01T12:02:42.840Z,9.40
2023-04-01T12:03:42.830Z,9.37
2023-04-01T12:04:42.658Z,9.34
2023-04-01T12:05:42.718Z,9.23
2023-04-01T12:06:42.643Z,9.19
2023-04-01T12:07:43.850Z,9.13
2023-04-01T12:08:42.662Z,9.12
2023-04-01T12:09:42.589Z,9.03
2023-04-01T12:10:42.556Z,9.01
2023-04-01T12:11:42.718Z,9.00
2023-04-01T12:12:50.728Z,8.98
2023-04-01T12:13:43.527Z,8.94
2023-04-01T12:14:42.533Z,8.88
2023-04-01T12:15:42.515Z,8.86
2023-04-01T12:16:42.558Z,8.85
2023-04-01T12:17:42.579Z,8.82
2023-04-01T12:18:42.455Z,8.89
2023-04-01T12:19:42.448Z,8.88
2023-04-01T12:20:42.450Z,8.93
2023-04-01T12:21:42.441Z,8.88
2023-04-01T12:22:42.417Z,8.93
2023-04-01T12:23:42.412Z,8.97
2023-04-01T12:24:42.367Z,8.97
2023-04-01T12:25:42.404Z,8.96
2023-04-01T12:26:42.356Z,8.96
2023-04-01T12:27:42.378Z,8.94
2023-04-01T12:28:42.350Z,9.01
2023-04-01T12:29:42.971Z,9.04
2023-04-01T12:30:42.339Z,9.03
2023-04-01T12:31:42.366Z,8.98
2023-04-01T12:32:42.394Z,8.94
2023-04-01T12:33:42.271Z,8.93
2023-04-01T12:34:42.288Z,8.89
2023-04-01T12:35:42.348Z,8.93
2023-04-01T12:36:42.230Z,8.97
2023-04-01T12:37:43.705Z,9.01
2023-04-01T12:38:42.194Z,9.08
2023-04-01T12:39:42.187Z,9.08
2023-04-01T12:40:42.212Z,9.12
2023-04-01T12:41:42.316Z,9.10
2023-04-01T12:42:42.152Z,9.04
2023-04-01T12:43:42.135Z,9.03
2023-04-01T12:44:42.220Z,8.97
2023-04-01T12:45:42.165Z,8.96
2023-04-01T12:46:42.092Z,8.88
2023-04-01T12:47:42.117Z,8.86
2023-04-01T12:48:42.056Z,8.89
2023-04-01T12:49:42.065Z,8.91
2023-04-01T12:50:42.055Z,8.89
2023-04-01T12:51:42.061Z,8.89
2023-04-01T12:52:42.010Z,8.86
2023-04-01T12:53:42.065Z,8.83
2023-04-01T12:54:42.011Z,8.80
2023-04-01T12:55:42.059Z,8.80
2023-04-01T12:56:41.984Z,8.82
2023-04-01T12:57:41.971Z,8.83
2023-04-01T12:58:41.937Z,8.79
2023-04-01T12:59:41.983Z,8.78
2023-04-01T13:00:43.346Z,8.73
2023-04-01T13:01:42.037Z,8.73
2023-04-01T13:02:41.932Z,8.65
2023-04-01T13:03:41.937Z,8.65
2023-04-01T13:04:41.864Z,8.63
2023-04-01T13:05:41.895Z,8.65
2023-04-01T13:06:41.830Z,8.63
2023-04-01T13:07:41.840Z,8.61
2023-04-01T13:08:41.841Z,8.58
2023-04-01T13:09:41.802Z,8.61
2023-04-01T13:10:41.812Z,8.61
2023-04-01T13:11:41.795Z,8.57
2023-04-01T13:12:41.883Z,8.58